Time;durP1;ratioP1;P1;durP2;ratioP2;P2;SDS_P1;SDS_P2;PMS_P1;PMS_P2;Temp;Humidity;BMP_temperature;BMP_pressure;BME280_temperature;BME280_humidity;BME280_pressure;Samples;Min_cycle;Max_cycle;Signal;HPM_P1;HPM_P2
2021/06/23 00:01:47;;;;;;;7.10;6.47;;;;;;;;;;4976551;28;20201;-55
2021/06/23 00:04:13;;;;;;;7.10;6.30;;;;;;;;;;4975162;28;20572;-56
2021/06/23 00:06:39;;;;;;;8.30;6.73;;;;;;;;;;4977025;28;20716;-55
2021/06/23 00:09:05;;;;;;;7.47;6.70;;;;;;;;;;4976425;28;20223;-59
2021/06/23 00:11:45;;;;;;;7.97;7.27;;;;;;;;;;4968794;28;20185;-55
2021/06/23 00:14:12;;;;;;;9.67;7.67;;;;;;;;;;4977045;28;20175;-55
2021/06/23 00:16:38;;;;;;;8.80;6.80;;;;;;;;;;4976500;28;20183;-55
2021/06/23 00:19:04;;;;;;;9.30;6.77;;;;;;;;;;4976514;28;20985;-55
2021/06/23 00:21:30;;;;;;;9.33;7.40;;;;;;;;;;4976076;28;20207;-57
2021/06/23 00:23:56;;;;;;;7.67;6.63;;;;;;;;;;4977056;28;20230;-56
2021/06/23 00:26:22;;;;;;;9.23;6.93;;;;;;;;;;4977231;28;20180;-55
2021/06/23 00:28:48;;;;;;;8.63;7.53;;;;;;;;;;4976105;28;20521;-55
2021/06/23 00:31:14;;;;;;;10.37;7.47;;;;;;;;;;4972701;28;20192;-56
2021/06/23 00:33:41;;;;;;;8.27;6.90;;;;;;;;;;4964156;28;20243;-55
2021/06/23 00:36:07;;;;;;;7.57;6.47;;;;;;;;;;4972297;28;20211;-55
2021/06/23 00:38:33;;;;;;;7.80;7.20;;;;;;;;;;4973684;28;20188;-58
2021/06/23 00:40:59;;;;;;;8.30;6.67;;;;;;;;;;4974580;28;20511;-58
2021/06/23 00:43:25;;;;;;;7.37;6.47;;;;;;;;;;4974254;28;20637;-55
2021/06/23 00:45:52;;;;;;;7.10;6.50;;;;;;;;;;4973848;28;20192;-55
2021/06/23 00:48:28;;;;;;;7.97;7.17;;;;;;;;;;4972694;28;20184;-55
2021/06/23 00:50:55;;;;;;;10.43;7.23;;;;;;;;;;4973609;28;20183;-54
2021/06/23 00:53:21;;;;;;;7.30;6.60;;;;;;;;;;4974303;28;20192;-57
2021/06/23 00:55:51;;;;;;;8.23;7.17;;;;;;;;;;4973188;28;20180;-55
2021/06/23 00:58:17;;;;;;;7.90;7.10;;;;;;;;;;4973307;28;20184;-56
2021/06/23 01:00:43;;;;;;;8.70;7.20;;;;;;;;;;4973153;28;20180;-54
2021/06/23 01:03:10;;;;;;;9.50;7.28;;;;;;;;;;4970790;28;20484;-56
2021/06/23 01:05:37;;;;;;;8.33;6.73;;;;;;;;;;4971336;28;20584;-56
2021/06/23 01:08:03;;;;;;;7.50;6.80;;;;;;;;;;4971904;28;20282;-55
2021/06/23 01:10:31;;;;;;;7.43;6.50;;;;;;;;;;4968688;28;20184;-55
2021/06/23 01:13:02;;;;;;;7.73;6.77;;;;;;;;;;4971744;28;20188;-55
2021/06/23 01:15:29;;;;;;;7.67;6.97;;;;;;;;;;4973117;28;20666;-57
2021/06/23 01:17:55;;;;;;;8.07;6.17;;;;;;;;;;4972706;28;20918;-55
2021/06/23 01:20:22;;;;;;;8.17;6.47;;;;;;;;;;4971654;28;20633;-55
2021/06/23 01:22:50;;;;;;;7.40;6.70;;;;;;;;;;4973495;28;20226;-55
2021/06/23 01:25:16;;;;;;;7.33;6.57;;;;;;;;;;4971881;28;20178;-57
2021/06/23 01:27:43;;;;;;;7.80;6.37;;;;;;;;;;4972789;28;20613;-55
2021/06/23 01:30:10;;;;;;;8.47;6.60;;;;;;;;;;4967444;28;20184;-57
2021/06/23 01:32:36;;;;;;;6.20;5.70;;;;;;;;;;4957493;28;20193;-58
2021/06/23 01:35:03;;;;;;;6.40;5.80;;;;;;;;;;4968771;28;20183;-55
2021/06/23 01:37:29;;;;;;;6.43;5.83;;;;;;;;;;4972165;28;20186;-55
2021/06/23 01:39:58;;;;;;;6.70;6.10;;;;;;;;;;4968410;28;20583;-56
2021/06/23 01:42:24;;;;;;;6.60;6.00;;;;;;;;;;4972277;28;20705;-55
2021/06/23 01:44:50;;;;;;;8.17;5.93;;;;;;;;;;4971618;28;20270;-56
2021/06/23 01:47:16;;;;;;;8.00;6.70;;;;;;;;;;4972141;28;20195;-56
2021/06/23 01:49:42;;;;;;;11.10;6.57;;;;;;;;;;4971484;28;20717;-55
2021/06/23 01:52:08;;;;;;;7.37;5.97;;;;;;;;;;4970460;28;20187;-55
2021/06/23 01:54:34;;;;;;;9.53;6.27;;;;;;;;;;4971392;28;20636;-55
2021/06/23 01:57:00;;;;;;;7.13;6.37;;;;;;;;;;4972736;28;20323;-54
2021/06/23 01:59:26;;;;;;;7.47;6.77;;;;;;;;;;4972829;28;20653;-54
2021/06/23 02:02:04;;;;;;;6.93;6.23;;;;;;;;;;4971531;28;20291;-54
2021/06/23 02:04:39;;;;;;;6.77;6.13;;;;;;;;;;4971867;28;20188;-54
2021/06/23 02:07:14;;;;;;;9.87;6.60;;;;;;;;;;4983896;28;20290;-54
2021/06/23 02:09:59;;;;;;;6.60;5.90;;;;;;;;;;4971331;28;20871;-54
2021/06/23 02:12:25;;;;;;;7.60;5.97;;;;;;;;;;4973444;28;20251;-55
2021/06/23 02:14:53;;;;;;;7.27;6.57;;;;;;;;;;4972629;28;20595;-54
2021/06/23 02:17:19;;;;;;;8.57;6.63;;;;;;;;;;4973056;28;20636;-56
2021/06/23 02:19:49;;;;;;;8.47;6.63;;;;;;;;;;4970350;28;20198;-54
2021/06/23 02:22:17;;;;;;;7.97;6.37;;;;;;;;;;4973332;28;20226;-54
2021/06/23 02:24:43;;;;;;;8.97;7.07;;;;;;;;;;4971996;28;20654;-54
2021/06/23 02:27:09;;;;;;;7.30;6.60;;;;;;;;;;4972519;28;20184;-54
2021/06/23 02:29:36;;;;;;;7.90;6.43;;;;;;;;;;4972273;28;20234;-54
2021/06/23 02:32:03;;;;;;;8.50;7.63;;;;;;;;;;4972894;28;20180;-56
2021/06/23 02:34:29;;;;;;;7.57;6.87;;;;;;;;;;4967084;28;20192;-55
2021/06/23 02:36:55;;;;;;;7.90;6.50;;;;;;;;;;4973032;28;20639;-54
2021/06/23 02:39:21;;;;;;;6.87;6.23;;;;;;;;;;4972168;28;20630;-54
2021/06/23 02:41:48;;;;;;;8.70;7.00;;;;;;;;;;4973049;28;20235;-56
2021/06/23 02:44:14;;;;;;;11.17;6.63;;;;;;;;;;4971715;28;20192;-55
2021/06/23 02:46:40;;;;;;;12.33;6.93;;;;;;;;;;4972803;28;20251;-54
2021/06/23 02:49:09;;;;;;;8.27;7.20;;;;;;;;;;4971961;28;20180;-54
2021/06/23 02:51:39;;;;;;;9.10;6.47;;;;;;;;;;4972508;28;20203;-54
2021/06/23 02:54:05;;;;;;;8.60;6.67;;;;;;;;;;4971469;28;20645;-54
2021/06/23 02:56:31;;;;;;;7.90;7.10;;;;;;;;;;4972583;28;20195;-54
2021/06/23 02:58:57;;;;;;;7.83;6.00;;;;;;;;;;4971065;28;20195;-55
2021/06/23 03:01:23;;;;;;;9.00;6.63;;;;;;;;;;4971996;28;20762;-56
2021/06/23 03:03:49;;;;;;;6.60;5.90;;;;;;;;;;4971707;28;20214;-54
2021/06/23 03:06:15;;;;;;;8.30;6.33;;;;;;;;;;4971588;28;21944;-54
2021/06/23 03:08:41;;;;;;;7.17;6.33;;;;;;;;;;4969186;28;20286;-54
2021/06/23 03:11:07;;;;;;;7.97;6.60;;;;;;;;;;4972589;28;20184;-55
2021/06/23 03:13:34;;;;;;;10.37;6.20;;;;;;;;;;4972264;28;20199;-57
2021/06/23 03:16:00;;;;;;;7.27;6.57;;;;;;;;;;4972053;28;20267;-54
2021/06/23 03:18:29;;;;;;;7.27;5.97;;;;;;;;;;4972057;28;20634;-55
2021/06/23 03:20:55;;;;;;;8.40;6.50;;;;;;;;;;4971964;28;20194;-56
2021/06/23 03:23:21;;;;;;;9.43;6.30;;;;;;;;;;4954244;28;20230;-55
2021/06/23 03:25:47;;;;;;;8.27;6.27;;;;;;;;;;4972002;28;20714;-56
2021/06/23 03:28:13;;;;;;;8.67;6.40;;;;;;;;;;4972055;28;20640;-54
2021/06/23 03:30:40;;;;;;;9.63;6.83;;;;;;;;;;4971873;28;20511;-57
2021/06/23 03:33:06;;;;;;;7.10;6.40;;;;;;;;;;4971064;28;20183;-56
2021/06/23 03:35:32;;;;;;;7.07;6.37;;;;;;;;;;4953195;28;20219;-55
2021/06/23 03:37:58;;;;;;;9.67;6.40;;;;;;;;;;4971720;28;20191;-55
2021/06/23 03:40:24;;;;;;;7.03;6.33;;;;;;;;;;4971333;28;20262;-55
2021/06/23 03:42:51;;;;;;;8.00;6.23;;;;;;;;;;4971314;28;20231;-54
2021/06/23 03:45:17;;;;;;;7.40;5.90;;;;;;;;;;4971896;28;20203;-54
2021/06/23 03:47:44;;;;;;;7.17;6.53;;;;;;;;;;4970449;28;20280;-54
2021/06/23 03:50:10;;;;;;;7.43;6.73;;;;;;;;;;4970429;28;20183;-55
2021/06/23 03:52:37;;;;;;;9.00;6.30;;;;;;;;;;4969804;28;20222;-56
2021/06/23 03:55:04;;;;;;;9.37;6.77;;;;;;;;;;4971353;28;20179;-55
2021/06/23 03:57:30;;;;;;;7.33;6.57;;;;;;;;;;4970495;28;20176;-54
2021/06/23 03:59:56;;;;;;;8.87;6.43;;;;;;;;;;4971114;28;20175;-57
2021/06/23 04:02:22;;;;;;;9.83;6.90;;;;;;;;;;4971227;28;20253;-56
2021/06/23 04:04:48;;;;;;;8.73;6.50;;;;;;;;;;4970380;28;20180;-55
2021/06/23 04:07:15;;;;;;;8.80;6.47;;;;;;;;;;4952489;28;20207;-56
2021/06/23 04:09:42;;;;;;;7.57;6.37;;;;;;;;;;4964067;28;20227;-56
2021/06/23 04:12:08;;;;;;;8.47;6.80;;;;;;;;;;4963432;28;20650;-56
2021/06/23 04:14:35;;;;;;;8.03;6.20;;;;;;;;;;4949581;29;20598;-56
2021/06/23 04:17:01;;;;;;;9.13;6.20;;;;;;;;;;4954545;29;20540;-56
2021/06/23 04:19:27;;;;;;;7.97;6.13;;;;;;;;;;4965118;28;20630;-55
2021/06/23 04:21:53;;;;;;;8.30;5.93;;;;;;;;;;4968639;28;20295;-56
2021/06/23 04:24:19;;;;;;;6.90;6.27;;;;;;;;;;4954815;28;20187;-55
2021/06/23 04:26:45;;;;;;;8.17;6.97;;;;;;;;;;4955025;28;20190;-55
2021/06/23 04:29:11;;;;;;;6.70;6.00;;;;;;;;;;4939768;29;20195;-55
2021/06/23 04:31:37;;;;;;;8.83;6.40;;;;;;;;;;4954258;29;20199;-57
2021/06/23 04:34:03;;;;;;;8.07;6.53;;;;;;;;;;4947736;28;20480;-54
2021/06/23 04:36:29;;;;;;;7.10;6.40;;;;;;;;;;4952867;29;20990;-54
2021/06/23 04:38:56;;;;;;;9.60;5.90;;;;;;;;;;4954046;29;20181;-55
2021/06/23 04:41:22;;;;;;;7.47;6.30;;;;;;;;;;4953411;29;20238;-54
2021/06/23 04:43:48;;;;;;;8.50;6.40;;;;;;;;;;4938639;29;20283;-55
2021/06/23 04:46:14;;;;;;;9.53;6.20;;;;;;;;;;4953594;29;20186;-56
2021/06/23 04:48:40;;;;;;;9.47;6.60;;;;;;;;;;4952292;28;20189;-57
2021/06/23 04:51:06;;;;;;;9.07;5.97;;;;;;;;;;4953258;29;20173;-55
2021/06/23 04:53:33;;;;;;;6.70;6.10;;;;;;;;;;4953981;29;20293;-56
2021/06/23 04:55:59;;;;;;;9.23;6.77;;;;;;;;;;4954046;28;20182;-56
2021/06/23 04:58:25;;;;;;;8.23;6.67;;;;;;;;;;4953703;29;20551;-56
2021/06/23 05:00:51;;;;;;;7.67;6.87;;;;;;;;;;4966816;28;20184;-55
2021/06/23 05:03:17;;;;;;;10.17;6.40;;;;;;;;;;4955291;28;20190;-57
2021/06/23 05:05:43;;;;;;;8.50;6.57;;;;;;;;;;4949885;29;20679;-56
2021/06/23 05:08:09;;;;;;;7.23;6.27;;;;;;;;;;4968064;28;20221;-54
2021/06/23 05:10:35;;;;;;;9.70;6.90;;;;;;;;;;4957050;28;20184;-57
2021/06/23 05:13:01;;;;;;;9.23;7.13;;;;;;;;;;4955260;28;20179;-54
2021/06/23 05:15:28;;;;;;;11.13;6.93;;;;;;;;;;4939549;29;20248;-54
2021/06/23 05:17:54;;;;;;;11.17;7.10;;;;;;;;;;4949785;28;20586;-55
2021/06/23 05:20:21;;;;;;;8.10;7.30;;;;;;;;;;4949510;29;20238;-54
2021/06/23 05:22:48;;;;;;;7.13;6.47;;;;;;;;;;4956713;28;20207;-56
2021/06/23 05:25:15;;;;;;;6.80;6.10;;;;;;;;;;4953109;29;20275;-54
2021/06/23 05:27:41;;;;;;;7.07;6.30;;;;;;;;;;4952869;29;20191;-55
2021/06/23 05:30:07;;;;;;;9.90;6.87;;;;;;;;;;4965063;28;20180;-55
2021/06/23 05:32:33;;;;;;;8.00;6.70;;;;;;;;;;4950875;28;20640;-58
2021/06/23 05:34:59;;;;;;;8.63;7.13;;;;;;;;;;4958429;28;20184;-56
2021/06/23 05:37:25;;;;;;;8.53;6.80;;;;;;;;;;4927048;29;20196;-55
2021/06/23 05:39:51;;;;;;;13.37;7.87;;;;;;;;;;4950662;29;20527;-56
2021/06/23 05:42:17;;;;;;;8.90;6.53;;;;;;;;;;4940055;29;20803;-56
2021/06/23 05:44:43;;;;;;;7.23;6.53;;;;;;;;;;4948438;29;20192;-55
2021/06/23 05:47:10;;;;;;;9.53;6.40;;;;;;;;;;4954909;28;20177;-55
2021/06/23 05:49:36;;;;;;;7.67;6.93;;;;;;;;;;4949676;28;20986;-56
2021/06/23 05:52:03;;;;;;;6.30;5.70;;;;;;;;;;4936466;29;20212;-56
2021/06/23 05:54:29;;;;;;;6.93;6.03;;;;;;;;;;4946112;29;20188;-56
2021/06/23 05:56:55;;;;;;;7.53;6.77;;;;;;;;;;4942403;29;20176;-58
2021/06/23 05:59:21;;;;;;;8.97;6.77;;;;;;;;;;4947678;29;20185;-58
2021/06/23 06:01:47;;;;;;;8.23;5.50;;;;;;;;;;4945905;29;20231;-56
2021/06/23 06:04:14;;;;;;;11.23;7.00;;;;;;;;;;4928846;29;20199;-57
2021/06/23 06:06:40;;;;;;;6.67;5.83;;;;;;;;;;4952249;28;20196;-57
2021/06/23 06:09:06;;;;;;;7.97;6.27;;;;;;;;;;4945807;28;20252;-55
2021/06/23 06:11:32;;;;;;;10.63;6.40;;;;;;;;;;4937108;29;20295;-57
2021/06/23 06:13:58;;;;;;;9.87;6.87;;;;;;;;;;4952068;29;20421;-55
2021/06/23 06:16:24;;;;;;;6.70;6.00;;;;;;;;;;4953126;29;20189;-55
2021/06/23 06:18:50;;;;;;;8.57;5.80;;;;;;;;;;4951579;29;20695;-57
2021/06/23 06:21:16;;;;;;;10.57;6.23;;;;;;;;;;4962801;28;20199;-55
2021/06/23 06:23:42;;;;;;;10.67;6.73;;;;;;;;;;4956029;28;20184;-55
2021/06/23 06:26:08;;;;;;;7.33;6.07;;;;;;;;;;4952690;29;20177;-55
2021/06/23 06:28:35;;;;;;;7.80;6.70;;;;;;;;;;4950774;29;20192;-55
2021/06/23 06:31:02;;;;;;;9.50;7.17;;;;;;;;;;4934537;29;20180;-58
2021/06/23 06:33:28;;;;;;;7.73;6.80;;;;;;;;;;4946018;28;20380;-55
2021/06/23 06:35:54;;;;;;;8.13;6.27;;;;;;;;;;4952062;29;20185;-55
2021/06/23 06:38:20;;;;;;;8.13;6.63;;;;;;;;;;4952805;29;20215;-55
2021/06/23 06:40:46;;;;;;;8.03;6.43;;;;;;;;;;4952529;29;20161;-55
2021/06/23 06:43:12;;;;;;;10.87;7.00;;;;;;;;;;4924060;29;20216;-55
2021/06/23 06:45:38;;;;;;;6.80;5.70;;;;;;;;;;4938612;29;20180;-55
2021/06/23 06:48:04;;;;;;;9.23;6.27;;;;;;;;;;4917207;29;20196;-55
2021/06/23 06:50:31;;;;;;;9.63;6.40;;;;;;;;;;4950112;29;20188;-55
2021/06/23 06:52:57;;;;;;;8.00;6.30;;;;;;;;;;4952524;29;20632;-56
2021/06/23 06:55:23;;;;;;;7.23;5.93;;;;;;;;;;4943108;29;20196;-56
2021/06/23 06:57:49;;;;;;;8.67;6.50;;;;;;;;;;4945169;29;20185;-55
2021/06/23 07:00:16;;;;;;;7.27;6.50;;;;;;;;;;4950837;29;20181;-55
2021/06/23 07:02:42;;;;;;;9.57;6.63;;;;;;;;;;4934642;29;20204;-55
2021/06/23 07:05:08;;;;;;;8.10;5.80;;;;;;;;;;4950671;29;20177;-56
2021/06/23 07:07:34;;;;;;;7.73;5.83;;;;;;;;;;4951301;28;20208;-55
2021/06/23 07:10:00;;;;;;;7.47;5.47;;;;;;;;;;4950814;29;20270;-56
2021/06/23 07:12:26;;;;;;;6.97;5.97;;;;;;;;;;4952290;29;20219;-55
2021/06/23 07:14:52;;;;;;;7.83;5.80;;;;;;;;;;4952877;29;20180;-55
2021/06/23 07:17:18;;;;;;;7.40;5.67;;;;;;;;;;4952318;28;20629;-56
2021/06/23 07:19:44;;;;;;;5.97;5.37;;;;;;;;;;4934765;29;20193;-55
2021/06/23 07:22:10;;;;;;;7.00;5.80;;;;;;;;;;4934458;29;20216;-57
2021/06/23 07:24:36;;;;;;;9.83;6.13;;;;;;;;;;4952574;29;20543;-55
2021/06/23 07:27:04;;;;;;;8.87;6.10;;;;;;;;;;4952211;29;20265;-55
2021/06/23 07:29:30;;;;;;;6.37;5.47;;;;;;;;;;4966827;28;20694;-57
2021/06/23 07:37:08;;;;;;;10.00;6.37;;;;;;;;;;4913090;29;20600;-60
2021/06/23 07:39:35;;;;;;;9.03;5.57;;;;;;;;;;4948944;29;20204;-56
2021/06/23 07:42:01;;;;;;;7.87;6.17;;;;;;;;;;4940221;29;20208;-55
2021/06/23 07:44:34;;;;;;;9.40;6.03;;;;;;;;;;4931937;29;20207;-57
2021/06/23 07:47:06;;;;;;;9.33;5.63;;;;;;;;;;4948149;28;20173;-56
2021/06/23 07:49:34;;;;;;;7.10;5.87;;;;;;;;;;4937312;29;20189;-56
2021/06/23 07:52:12;;;;;;;6.27;5.67;;;;;;;;;;4956984;29;20272;-56
2021/06/23 08:02:51;;;;;;;9.43;5.90;;;;;;;;;;4937186;29;20236;-55
2021/06/23 08:10:40;;;;;;;7.93;6.13;;;;;;;;;;4974581;28;20194;-59
2021/06/23 08:13:06;;;;;;;6.63;5.90;;;;;;;;;;4973134;28;20187;-55
2021/06/23 08:15:34;;;;;;;9.73;6.70;;;;;;;;;;4962716;28;20188;-56
2021/06/23 08:18:00;;;;;;;7.30;5.57;;;;;;;;;;4970852;28;20172;-54
2021/06/23 08:20:27;;;;;;;9.03;5.97;;;;;;;;;;4961817;28;20186;-55
2021/06/23 08:22:53;;;;;;;6.13;5.53;;;;;;;;;;4972035;28;20200;-55
2021/06/23 08:25:21;;;;;;;9.40;6.23;;;;;;;;;;4974091;28;20195;-57
2021/06/23 08:27:47;;;;;;;9.23;6.57;;;;;;;;;;4974247;28;20566;-55
2021/06/23 08:30:14;;;;;;;6.17;5.57;;;;;;;;;;4973485;28;20177;-55
2021/06/23 08:32:40;;;;;;;8.70;5.50;;;;;;;;;;4974042;28;20195;-58
2021/06/23 08:35:07;;;;;;;10.03;6.23;;;;;;;;;;4973442;28;20187;-55
2021/06/23 08:37:33;;;;;;;7.53;5.53;;;;;;;;;;4975050;28;20234;-56
2021/06/23 08:39:59;;;;;;;9.70;6.73;;;;;;;;;;4973061;28;20184;-57
2021/06/23 08:42:25;;;;;;;9.37;6.57;;;;;;;;;;4974179;28;20778;-57
2021/06/23 08:44:52;;;;;;;11.70;6.17;;;;;;;;;;4974484;28;20187;-58
2021/06/23 08:47:18;;;;;;;9.93;6.23;;;;;;;;;;4974811;28;20230;-56
2021/06/23 08:49:45;;;;;;;8.27;6.07;;;;;;;;;;4973566;28;20176;-56
2021/06/23 08:52:11;;;;;;;8.40;6.10;;;;;;;;;;4974497;28;20234;-55
2021/06/23 08:54:37;;;;;;;9.87;6.00;;;;;;;;;;4973641;28;20183;-57
2021/06/23 08:57:05;;;;;;;10.97;5.77;;;;;;;;;;4973006;28;20258;-57
2021/06/23 08:59:31;;;;;;;12.70;6.70;;;;;;;;;;4973542;28;20187;-56
2021/06/23 09:01:57;;;;;;;11.43;6.50;;;;;;;;;;4975196;28;20267;-55
2021/06/23 09:04:27;;;;;;;11.37;6.93;;;;;;;;;;4979457;28;20184;-54
2021/06/23 09:07:00;;;;;;;8.13;6.80;;;;;;;;;;4974130;28;20200;-55
2021/06/23 09:09:34;;;;;;;8.97;6.23;;;;;;;;;;4973354;28;20278;-55
2021/06/23 09:12:01;;;;;;;10.37;7.07;;;;;;;;;;4974027;28;20187;-55
2021/06/23 09:14:28;;;;;;;11.20;7.20;;;;;;;;;;4973242;28;20274;-55
2021/06/23 09:17:04;;;;;;;7.40;6.70;;;;;;;;;;4974017;28;20262;-56
2021/06/23 09:19:30;;;;;;;11.30;6.83;;;;;;;;;;4972943;28;20582;-58
2021/06/23 09:21:56;;;;;;;9.43;6.80;;;;;;;;;;4971657;28;20314;-56
2021/06/23 09:24:33;;;;;;;9.23;6.93;;;;;;;;;;4973628;28;20188;-56
2021/06/23 09:26:59;;;;;;;9.07;6.07;;;;;;;;;;4974281;28;20187;-56
2021/06/23 09:29:25;;;;;;;10.23;6.73;;;;;;;;;;4973768;28;20180;-57
2021/06/23 09:31:59;;;;;;;7.83;6.70;;;;;;;;;;4974087;28;20184;-55
2021/06/23 09:34:27;;;;;;;11.67;6.07;;;;;;;;;;4971572;28;20202;-58
2021/06/23 09:36:53;;;;;;;10.97;6.80;;;;;;;;;;4973660;28;20207;-55
2021/06/23 09:39:20;;;;;;;7.77;6.97;;;;;;;;;;4972633;28;20187;-57
2021/06/23 09:41:47;;;;;;;10.37;6.30;;;;;;;;;;4972995;28;20749;-55
2021/06/23 09:44:13;;;;;;;10.40;7.30;;;;;;;;;;4973795;28;20187;-55
2021/06/23 09:46:40;;;;;;;8.20;7.40;;;;;;;;;;4972360;28;20188;-55
2021/06/23 09:49:09;;;;;;;12.57;7.70;;;;;;;;;;4972755;28;20191;-55
2021/06/23 09:51:43;;;;;;;8.80;7.20;;;;;;;;;;4972141;28;20192;-56
2021/06/23 09:54:09;;;;;;;8.23;7.37;;;;;;;;;;4973157;28;20638;-56
2021/06/23 09:56:43;;;;;;;9.47;7.07;;;;;;;;;;4972953;28;20564;-56
2021/06/23 09:59:17;;;;;;;12.83;7.10;;;;;;;;;;4972338;28;20172;-55
2021/06/23 10:01:44;;;;;;;9.90;7.03;;;;;;;;;;4973148;28;20631;-55
2021/06/23 10:04:10;;;;;;;9.57;7.30;;;;;;;;;;4969673;28;20565;-55
2021/06/23 10:06:42;;;;;;;9.50;8.50;;;;;;;;;;4967180;28;20205;-57
2021/06/23 10:09:16;;;;;;;9.20;7.20;;;;;;;;;;4970329;28;20243;-55
2021/06/23 10:11:43;;;;;;;7.63;6.93;;;;;;;;;;4969550;28;20203;-58
2021/06/23 10:14:09;;;;;;;9.40;7.30;;;;;;;;;;4969796;28;20180;-56
2021/06/23 10:16:36;;;;;;;9.67;6.77;;;;;;;;;;4969459;28;20604;-56
2021/06/23 10:19:03;;;;;;;8.03;7.30;;;;;;;;;;4970274;28;20202;-56
2021/06/23 10:21:32;;;;;;;8.60;7.70;;;;;;;;;;4971025;28;20199;-55
2021/06/23 10:23:58;;;;;;;10.70;6.93;;;;;;;;;;4970529;28;20180;-55
2021/06/23 10:26:26;;;;;;;10.87;7.60;;;;;;;;;;4971506;28;20676;-55
2021/06/23 10:28:53;;;;;;;7.40;6.23;;;;;;;;;;4970925;28;20186;-56
2021/06/23 10:31:21;;;;;;;6.63;6.03;;;;;;;;;;4971403;28;20685;-55
2021/06/23 10:33:48;;;;;;;8.70;6.60;;;;;;;;;;4970195;28;20219;-56
2021/06/23 10:36:14;;;;;;;8.00;6.47;;;;;;;;;;4971010;28;20176;-56
2021/06/23 10:38:42;;;;;;;17.67;8.07;;;;;;;;;;4970908;28;20183;-56
2021/06/23 10:41:09;;;;;;;9.30;6.63;;;;;;;;;;4970246;28;20175;-55
2021/06/23 10:43:35;;;;;;;8.13;7.17;;;;;;;;;;4954848;28;20554;-56
2021/06/23 10:46:01;;;;;;;9.63;7.00;;;;;;;;;;4970434;28;20207;-56
2021/06/23 10:48:27;;;;;;;9.83;6.53;;;;;;;;;;4970921;28;20180;-56
2021/06/23 10:50:53;;;;;;;10.20;7.07;;;;;;;;;;4970286;28;20180;-56
2021/06/23 10:53:35;;;;;;;11.00;7.30;;;;;;;;;;4971447;28;20184;-55
2021/06/23 10:56:03;;;;;;;9.13;7.00;;;;;;;;;;4970472;28;20206;-59
2021/06/23 10:58:30;;;;;;;7.97;7.17;;;;;;;;;;4970654;28;20246;-55
2021/06/23 11:01:06;;;;;;;10.07;7.40;;;;;;;;;;4954486;28;20186;-55
2021/06/23 11:03:32;;;;;;;9.77;7.00;;;;;;;;;;4964133;28;20210;-57
2021/06/23 11:05:58;;;;;;;8.37;6.77;;;;;;;;;;4968302;28;20241;-56
2021/06/23 11:08:25;;;;;;;7.00;6.20;;;;;;;;;;4968408;28;20235;-56
2021/06/23 11:10:52;;;;;;;8.40;7.60;;;;;;;;;;4970399;28;20176;-56
2021/06/23 11:13:22;;;;;;;8.20;7.07;;;;;;;;;;4969777;28;20716;-57
2021/06/23 11:15:50;;;;;;;11.63;7.20;;;;;;;;;;4970860;28;20192;-56
2021/06/23 11:18:21;;;;;;;10.30;7.27;;;;;;;;;;4970096;28;20636;-56
2021/06/23 11:20:48;;;;;;;10.43;7.30;;;;;;;;;;4969763;28;20226;-58
2021/06/23 11:23:33;;;;;;;9.37;6.77;;;;;;;;;;4970366;28;20231;-55
2021/06/23 11:25:59;;;;;;;11.77;7.60;;;;;;;;;;4964069;28;20238;-55
2021/06/23 11:28:26;;;;;;;10.93;7.07;;;;;;;;;;4967855;28;20179;-56
2021/06/23 11:30:52;;;;;;;10.60;7.37;;;;;;;;;;4969637;28;20635;-58
2021/06/23 11:33:27;;;;;;;10.37;7.23;;;;;;;;;;4970393;28;20200;-55
2021/06/23 11:35:58;;;;;;;8.17;7.27;;;;;;;;;;4951243;29;20588;-56
2021/06/23 11:38:24;;;;;;;7.97;7.00;;;;;;;;;;4966120;28;20186;-58
2021/06/23 11:40:50;;;;;;;7.03;6.40;;;;;;;;;;4970795;28;20322;-55
2021/06/23 11:43:16;;;;;;;10.80;6.50;;;;;;;;;;4969368;28;20203;-55
2021/06/23 11:45:43;;;;;;;10.23;7.50;;;;;;;;;;4970085;28;20203;-58
2021/06/23 11:48:09;;;;;;;8.23;6.70;;;;;;;;;;4967991;28;20187;-55
2021/06/23 11:50:36;;;;;;;7.97;6.23;;;;;;;;;;4960601;28;20180;-55
2021/06/23 11:53:06;;;;;;;7.07;5.93;;;;;;;;;;4968592;28;20199;-56
2021/06/23 11:55:32;;;;;;;10.10;6.60;;;;;;;;;;4970545;28;20626;-56
2021/06/23 11:57:59;;;;;;;8.47;6.80;;;;;;;;;;4967199;28;20184;-59
2021/06/23 12:00:27;;;;;;;7.63;6.47;;;;;;;;;;4970001;28;20202;-56
2021/06/23 12:02:53;;;;;;;7.67;6.07;;;;;;;;;;4970812;28;20211;-59
2021/06/23 12:05:20;;;;;;;6.87;5.97;;;;;;;;;;4968585;28;20227;-57
2021/06/23 12:07:46;;;;;;;7.30;6.30;;;;;;;;;;4969513;28;20242;-56
2021/06/23 12:10:12;;;;;;;9.00;6.20;;;;;;;;;;4969905;28;20176;-58
2021/06/23 12:12:39;;;;;;;10.77;6.33;;;;;;;;;;4969321;28;20184;-57
2021/06/23 12:15:07;;;;;;;10.37;6.53;;;;;;;;;;4967939;28;20722;-56
2021/06/23 12:17:33;;;;;;;7.70;6.10;;;;;;;;;;4957934;28;20188;-58
2021/06/23 12:20:01;;;;;;;7.70;6.00;;;;;;;;;;4964746;28;20187;-56
2021/06/23 12:22:27;;;;;;;10.20;6.30;;;;;;;;;;4967654;28;20553;-55
2021/06/23 12:24:53;;;;;;;7.57;6.23;;;;;;;;;;4969432;28;20180;-58
2021/06/23 12:27:19;;;;;;;12.77;7.10;;;;;;;;;;4969184;28;20623;-55
2021/06/23 12:29:45;;;;;;;7.27;5.93;;;;;;;;;;4970015;28;20643;-55
2021/06/23 12:32:11;;;;;;;10.30;6.30;;;;;;;;;;4970957;28;20224;-54
2021/06/23 12:34:40;;;;;;;8.37;6.23;;;;;;;;;;4970085;28;20759;-55
2021/06/23 12:37:06;;;;;;;9.87;5.87;;;;;;;;;;4965055;28;20185;-55
2021/06/23 12:39:32;;;;;;;8.20;5.90;;;;;;;;;;4963510;28;20661;-55
2021/06/23 12:41:59;;;;;;;8.30;6.60;;;;;;;;;;4968737;28;20222;-59
2021/06/23 12:44:25;;;;;;;9.27;6.60;;;;;;;;;;4970755;28;20191;-56
2021/06/23 12:46:51;;;;;;;10.23;6.60;;;;;;;;;;4972326;28;20176;-57
2021/06/23 12:49:17;;;;;;;8.70;6.90;;;;;;;;;;4972040;28;20229;-57
2021/06/23 12:51:43;;;;;;;7.37;6.57;;;;;;;;;;4967099;28;20188;-56
2021/06/23 12:54:10;;;;;;;10.80;6.67;;;;;;;;;;4970281;28;20205;-55
2021/06/23 12:56:36;;;;;;;8.77;6.23;;;;;;;;;;4973049;28;20489;-55
2021/06/23 12:59:02;;;;;;;9.90;6.80;;;;;;;;;;4969978;28;20179;-58
2021/06/23 13:01:28;;;;;;;7.93;6.43;;;;;;;;;;4970807;28;20195;-56
2021/06/23 13:03:54;;;;;;;8.77;6.47;;;;;;;;;;4970822;28;20687;-58
2021/06/23 13:06:20;;;;;;;6.93;6.23;;;;;;;;;;4969757;28;20227;-56
2021/06/23 13:08:47;;;;;;;7.60;6.73;;;;;;;;;;4970074;28;20279;-56
2021/06/23 13:11:14;;;;;;;11.57;7.20;;;;;;;;;;4965228;28;20275;-55
2021/06/23 13:13:40;;;;;;;14.33;8.07;;;;;;;;;;4969462;28;20180;-56
2021/06/23 13:16:07;;;;;;;11.17;9.03;;;;;;;;;;4971915;28;20235;-57
2021/06/23 13:18:33;;;;;;;11.57;9.00;;;;;;;;;;4970934;28;20190;-57
2021/06/23 13:20:59;;;;;;;14.37;9.50;;;;;;;;;;4968508;28;20180;-58
2021/06/23 13:23:26;;;;;;;12.37;10.43;;;;;;;;;;4972144;28;20678;-57
2021/06/23 13:25:53;;;;;;;13.65;10.20;;;;;;;;;;4969506;28;20441;-55
2021/06/23 13:28:20;;;;;;;12.23;10.27;;;;;;;;;;4971616;28;20187;-56
2021/06/23 13:30:46;;;;;;;12.50;9.03;;;;;;;;;;4972236;28;20176;-57
2021/06/23 13:33:12;;;;;;;11.57;8.97;;;;;;;;;;4971657;28;20182;-55
2021/06/23 13:35:38;;;;;;;11.43;10.33;;;;;;;;;;4970607;28;20192;-56
2021/06/23 13:38:04;;;;;;;11.37;9.17;;;;;;;;;;4970032;28;20202;-59
2021/06/23 13:40:30;;;;;;;12.43;9.80;;;;;;;;;;4971150;28;20586;-56
2021/06/23 13:42:56;;;;;;;11.23;9.40;;;;;;;;;;4965981;28;20207;-55
2021/06/23 13:45:23;;;;;;;12.67;10.90;;;;;;;;;;4964710;28;20227;-56
2021/06/23 13:47:49;;;;;;;13.13;9.70;;;;;;;;;;4972830;28;20266;-56
2021/06/23 13:50:16;;;;;;;15.00;11.27;;;;;;;;;;4971277;28;20242;-55
2021/06/23 13:52:43;;;;;;;15.67;10.07;;;;;;;;;;4970310;28;20179;-56
2021/06/23 13:55:10;;;;;;;11.80;9.77;;;;;;;;;;4969142;28;20541;-55
2021/06/23 13:57:39;;;;;;;12.90;10.23;;;;;;;;;;4970911;28;20180;-57
2021/06/23 14:00:07;;;;;;;11.37;9.27;;;;;;;;;;4972792;28;20271;-55
2021/06/23 14:02:33;;;;;;;13.33;9.90;;;;;;;;;;4973247;28;20860;-56
2021/06/23 14:04:59;;;;;;;14.47;10.23;;;;;;;;;;4969990;28;20222;-55
2021/06/23 14:07:25;;;;;;;11.43;8.67;;;;;;;;;;4970483;28;20291;-58
2021/06/23 14:09:51;;;;;;;15.30;9.70;;;;;;;;;;4970320;28;20184;-58
2021/06/23 14:12:17;;;;;;;11.60;9.63;;;;;;;;;;4968722;28;20655;-56
2021/06/23 14:14:43;;;;;;;10.10;9.10;;;;;;;;;;4970766;28;20192;-56
2021/06/23 14:17:09;;;;;;;11.67;9.20;;;;;;;;;;4972327;28;20676;-56
2021/06/23 14:19:35;;;;;;;13.73;9.50;;;;;;;;;;4970693;28;20191;-58
2021/06/23 14:22:01;;;;;;;16.43;11.17;;;;;;;;;;4972852;28;20207;-56
2021/06/23 14:24:27;;;;;;;12.80;8.70;;;;;;;;;;4972006;28;20516;-56
2021/06/23 14:26:53;;;;;;;10.07;9.03;;;;;;;;;;4971481;28;20262;-57
2021/06/23 14:29:19;;;;;;;13.13;9.70;;;;;;;;;;4954663;28;20183;-55
2021/06/23 14:31:45;;;;;;;12.50;9.47;;;;;;;;;;4971622;28;21040;-56
2021/06/23 14:34:11;;;;;;;11.30;9.90;;;;;;;;;;4980895;28;20762;-56
2021/06/23 14:36:37;;;;;;;10.90;9.63;;;;;;;;;;4985691;28;20241;-55
2021/06/23 14:39:05;;;;;;;14.07;10.97;;;;;;;;;;4971110;28;20230;-57
2021/06/23 14:41:31;;;;;;;13.50;9.07;;;;;;;;;;4971550;28;20271;-57
2021/06/23 14:43:57;;;;;;;11.50;10.17;;;;;;;;;;4969486;28;20185;-55
2021/06/23 14:46:23;;;;;;;11.23;10.20;;;;;;;;;;4972487;28;20511;-56
2021/06/23 14:48:49;;;;;;;11.73;10.37;;;;;;;;;;4970297;28;20646;-58
2021/06/23 14:51:15;;;;;;;14.73;9.60;;;;;;;;;;4964211;28;20183;-56
2021/06/23 14:53:41;;;;;;;11.10;9.70;;;;;;;;;;4967982;28;20203;-58
2021/06/23 14:56:07;;;;;;;11.83;10.60;;;;;;;;;;4965514;28;20191;-56